Time;durP1;ratioP1;P1;durP2;ratioP2;P2;SDS_P1;SDS_P2;PMS_P1;PMS_P2;Temp;Humidity;BMP_temperature;BMP_pressure;BME280_temperature;BME280_humidity;BME280_pressure;Samples;Min_cycle;Max_cycle;Signal;HPM_P1;HPM_P2
2022/07/21 00:00:21;;;;;;;6.30;5.80;;;21.10;99.90;;;;;;5117836;28;20724;-72
2022/07/21 00:02:48;;;;;;;6.37;5.63;;;21.10;99.90;;;;;;5117939;28;20501;-71
2022/07/21 00:05:15;;;;;;;6.50;6.00;;;21.20;99.90;;;;;;5118055;28;20531;-71
2022/07/21 00:07:42;;;;;;;7.90;6.80;;;21.20;99.90;;;;;;5118153;28;20480;-72
2022/07/21 00:10:10;;;;;;;7.03;6.10;;;21.30;99.90;;;;;;5117916;28;20805;-71
2022/07/21 00:12:37;;;;;;;7.10;5.90;;;21.60;99.90;;;;;;5118662;28;20911;-72
2022/07/21 00:15:07;;;;;;;7.00;6.30;;;21.60;99.90;;;;;;5119182;28;20870;-71
2022/07/21 00:17:34;;;;;;;6.00;5.50;;;21.40;99.90;;;;;;5119499;28;20501;-72
2022/07/21 00:20:01;;;;;;;6.83;6.33;;;21.60;99.90;;;;;;5119329;28;20484;-71
2022/07/21 00:22:28;;;;;;;6.37;5.87;;;21.70;99.90;;;;;;5119324;28;20968;-72
2022/07/21 00:24:55;;;;;;;5.63;5.13;;;21.60;99.90;;;;;;5118920;28;21663;-72
2022/07/21 00:27:22;;;;;;;5.70;4.87;;;21.40;99.90;;;;;;5118866;28;20476;-72
2022/07/21 00:29:49;;;;;;;5.47;4.97;;;21.30;99.90;;;;;;5118485;28;20483;-72
2022/07/21 00:32:17;;;;;;;6.70;6.10;;;21.20;99.90;;;;;;5118971;28;20492;-72
2022/07/21 00:34:45;;;;;;;6.60;5.93;;;21.30;99.90;;;;;;5118447;28;20900;-72
2022/07/21 00:37:11;;;;;;;5.67;5.13;;;21.40;99.90;;;;;;5118725;28;20444;-72
2022/07/21 00:39:39;;;;;;;6.57;5.87;;;21.30;99.90;;;;;;5118587;28;20519;-72
2022/07/21 00:42:06;;;;;;;5.00;4.20;;;21.30;99.90;;;;;;5118270;28;20527;-71
2022/07/21 00:44:33;;;;;;;4.80;4.50;;;21.40;99.90;;;;;;5119065;28;20481;-72
2022/07/21 00:47:00;;;;;;;4.40;4.10;;;21.40;99.90;;;;;;5118824;28;20484;-71
2022/07/21 00:49:29;;;;;;;4.70;4.30;;;21.40;99.90;;;;;;5118555;28;20486;-72
2022/07/21 00:51:56;;;;;;;4.90;4.50;;;21.40;99.90;;;;;;5118514;28;20816;-71
2022/07/21 00:54:23;;;;;;;4.57;4.27;;;21.40;99.90;;;;;;5118170;28;20444;-71
2022/07/21 00:56:49;;;;;;;4.20;3.80;;;21.50;99.90;;;;;;5118598;28;20484;-72
2022/07/21 00:59:17;;;;;;;4.33;3.93;;;21.50;99.90;;;;;;5118172;28;20488;-71
2022/07/21 01:01:44;;;;;;;5.33;4.83;;;21.60;99.90;;;;;;5118443;28;20448;-71
2022/07/21 01:04:11;;;;;;;4.20;3.90;;;21.60;99.90;;;;;;5118463;28;20506;-71
2022/07/21 01:06:39;;;;;;;5.40;3.80;;;21.60;99.90;;;;;;5118398;28;20543;-71
2022/07/21 01:09:06;;;;;;;4.33;4.00;;;21.60;99.90;;;;;;5118179;28;20480;-71
2022/07/21 01:11:33;;;;;;;3.87;3.50;;;21.70;99.90;;;;;;5118140;28;20452;-71
2022/07/21 01:14:00;;;;;;;5.83;4.47;;;21.80;99.90;;;;;;5118158;28;20441;-72
2022/07/21 01:16:27;;;;;;;4.13;3.70;;;21.80;99.90;;;;;;5118194;28;20903;-71
2022/07/21 01:18:55;;;;;;;3.33;3.13;;;21.70;99.90;;;;;;5117893;28;20817;-72
2022/07/21 01:21:31;;;;;;;6.90;3.23;;;21.60;99.90;;;;;;5117438;28;20806;-72
2022/07/21 01:23:58;;;;;;;3.50;3.20;;;21.50;99.90;;;;;;5118095;28;20479;-71
2022/07/21 01:26:25;;;;;;;5.13;3.27;;;21.50;99.90;;;;;;5118178;28;20480;-71
2022/07/21 01:28:53;;;;;;;3.63;3.23;;;21.50;99.90;;;;;;5117654;28;20527;-71
2022/07/21 01:31:20;;;;;;;5.73;2.73;;;21.50;99.90;;;;;;5117992;28;20542;-72
2022/07/21 01:33:48;;;;;;;4.57;3.57;;;21.30;99.90;;;;;;5117656;28;20783;-70
2022/07/21 01:36:15;;;;;;;3.43;3.07;;;21.30;99.90;;;;;;5117717;28;20891;-71
2022/07/21 01:41:30;;;;;;;2.63;2.43;;;21.40;99.90;;;;;;5116643;28;20500;-71
2022/07/21 01:43:57;;;;;;;2.67;2.23;;;21.50;99.90;;;;;;5117615;28;20444;-71
2022/07/21 01:46:26;;;;;;;2.17;1.97;;;21.60;99.90;;;;;;5117776;28;20453;-71
2022/07/21 01:48:53;;;;;;;2.33;1.83;;;21.50;99.90;;;;;;5117772;28;20515;-71
2022/07/21 01:51:20;;;;;;;4.23;3.00;;;21.60;99.90;;;;;;5117418;28;20947;-71
2022/07/21 01:53:48;;;;;;;3.83;3.50;;;21.50;99.90;;;;;;5117313;28;20931;-72
2022/07/21 01:56:15;;;;;;;5.60;3.17;;;21.40;99.90;;;;;;5116989;28;20499;-72
2022/07/21 01:58:42;;;;;;;3.77;3.27;;;21.20;99.90;;;;;;5117127;28;20515;-71
2022/07/21 02:01:09;;;;;;;3.87;2.90;;;21.30;99.90;;;;;;5117135;28;20693;-71
2022/07/21 02:03:36;;;;;;;3.87;3.30;;;21.20;99.90;;;;;;5116966;28;20484;-71
2022/07/21 02:06:05;;;;;;;2.73;2.53;;;21.20;99.90;;;;;;5117712;28;20448;-71
2022/07/21 02:08:32;;;;;;;2.90;2.07;;;21.10;99.90;;;;;;5117122;28;20467;-71
2022/07/21 02:11:01;;;;;;;2.43;2.17;;;21.10;99.90;;;;;;5117310;28;20495;-71
2022/07/21 02:13:28;;;;;;;2.87;2.57;;;21.00;99.90;;;;;;5117059;28;20812;-71
2022/07/21 02:15:54;;;;;;;4.40;2.50;;;20.90;99.90;;;;;;5116775;28;20457;-71
2022/07/21 02:18:22;;;;;;;3.57;2.83;;;20.80;99.90;;;;;;5116642;28;20709;-71
2022/07/21 02:20:50;;;;;;;2.60;2.40;;;20.70;99.90;;;;;;5116986;28;20579;-70
2022/07/21 02:23:17;;;;;;;4.50;3.20;;;20.70;99.90;;;;;;5117173;28;20447;-70
2022/07/21 02:25:44;;;;;;;5.63;2.47;;;20.70;99.90;;;;;;5117260;28;20486;-71
2022/07/21 02:28:12;;;;;;;3.40;3.10;;;20.70;99.90;;;;;;5116522;28;20876;-71
2022/07/21 02:30:40;;;;;;;3.00;2.70;;;20.60;99.90;;;;;;5116497;28;20815;-71
2022/07/21 02:33:07;;;;;;;2.83;2.53;;;20.40;99.90;;;;;;5116931;28;20493;-70
2022/07/21 02:35:34;;;;;;;3.80;2.63;;;20.30;99.90;;;;;;5116669;28;20476;-71
2022/07/21 02:38:01;;;;;;;2.57;2.10;;;20.20;99.90;;;;;;5116385;28;20730;-70
2022/07/21 02:40:28;;;;;;;3.33;2.03;;;20.10;99.90;;;;;;5116520;28;20587;-71
2022/07/21 02:42:56;;;;;;;3.67;2.87;;;20.00;99.90;;;;;;5115845;28;20494;-71
2022/07/21 02:45:25;;;;;;;3.60;2.53;;;20.00;99.90;;;;;;5116594;28;20457;-70
2022/07/21 02:47:53;;;;;;;3.30;3.00;;;20.00;99.90;;;;;;5117079;28;20468;-71
2022/07/21 02:50:22;;;;;;;3.00;2.47;;;20.00;99.90;;;;;;5116678;28;20448;-71
2022/07/21 02:52:49;;;;;;;2.60;2.40;;;20.00;99.90;;;;;;5116092;28;20910;-71
2022/07/21 02:55:17;;;;;;;3.13;2.67;;;20.00;99.90;;;;;;5116212;28;20452;-73
2022/07/21 02:57:44;;;;;;;2.40;2.20;;;20.10;99.90;;;;;;5116292;28;20491;-71
2022/07/21 03:00:11;;;;;;;3.90;2.40;;;20.10;99.90;;;;;;5115862;28;20520;-71
2022/07/21 03:02:40;;;;;;;4.43;3.50;;;20.10;99.90;;;;;;5116368;28;20475;-70
2022/07/21 03:05:07;;;;;;;2.50;1.83;;;20.00;99.90;;;;;;5116195;28;20908;-70
2022/07/21 03:07:34;;;;;;;2.73;1.87;;;19.90;99.90;;;;;;5116523;28;20937;-70
2022/07/21 03:10:01;;;;;;;3.50;2.13;;;20.10;99.90;;;;;;5116263;28;20545;-71
2022/07/21 03:12:28;;;;;;;3.30;2.80;;;20.10;99.90;;;;;;5115861;28;20441;-70
2022/07/21 03:14:55;;;;;;;3.43;2.33;;;20.20;99.90;;;;;;5116351;28;20606;-71
2022/07/21 03:17:22;;;;;;;3.60;2.87;;;20.20;99.90;;;;;;5116274;28;20553;-69
2022/07/21 03:19:51;;;;;;;4.10;2.30;;;20.50;99.90;;;;;;5116193;28;20491;-70
2022/07/21 03:22:18;;;;;;;2.67;1.57;;;20.70;99.90;;;;;;5116672;28;20632;-72
2022/07/21 03:24:44;;;;;;;3.77;2.33;;;20.80;99.90;;;;;;5116248;28;20480;-71
2022/07/21 03:27:11;;;;;;;3.93;1.93;;;20.90;99.90;;;;;;5116407;28;20491;-71
2022/07/21 03:29:38;;;;;;;2.30;1.77;;;20.80;99.90;;;;;;5113794;28;20547;-71
2022/07/21 03:32:06;;;;;;;2.40;1.97;;;20.70;99.90;;;;;;5111179;28;20472;-69
2022/07/21 03:34:35;;;;;;;3.33;2.33;;;20.60;99.90;;;;;;5113248;28;20823;-69
2022/07/21 03:37:03;;;;;;;4.93;2.23;;;20.60;99.90;;;;;;5100928;28;20434;-70
2022/07/21 03:39:30;;;;;;;2.40;2.20;;;20.50;99.90;;;;;;5107469;28;20446;-70
2022/07/21 03:41:57;;;;;;;2.53;1.93;;;20.40;99.90;;;;;;5115398;28;20583;-70
2022/07/21 03:44:24;;;;;;;3.23;2.67;;;20.40;99.90;;;;;;5114700;28;20532;-71
2022/07/21 03:46:51;;;;;;;2.37;1.87;;;20.30;99.90;;;;;;5114801;28;20483;-69
2022/07/21 03:49:18;;;;;;;2.20;2.00;;;20.30;99.90;;;;;;5114452;28;20784;-69
2022/07/21 03:51:45;;;;;;;2.83;2.10;;;20.40;99.90;;;;;;5115125;28;20488;-69
2022/07/21 03:54:13;;;;;;;4.37;2.03;;;20.30;99.90;;;;;;5114224;28;20476;-69
2022/07/21 03:56:40;;;;;;;3.00;2.07;;;20.40;99.90;;;;;;5115904;28;20484;-70
2022/07/21 03:59:07;;;;;;;3.03;2.07;;;20.50;99.90;;;;;;5114634;28;20441;-70
2022/07/21 04:01:34;;;;;;;3.37;2.10;;;20.60;99.90;;;;;;5116016;28;20488;-69
2022/07/21 04:04:00;;;;;;;3.90;2.17;;;20.70;99.90;;;;;;5117845;28;20441;-70
2022/07/21 04:06:27;;;;;;;3.00;2.03;;;20.60;99.90;;;;;;5119463;28;20939;-70
2022/07/21 04:08:54;;;;;;;2.30;1.70;;;20.80;99.90;;;;;;5118744;28;20907;-70
2022/07/21 04:11:22;;;;;;;2.20;1.90;;;20.80;99.90;;;;;;5119406;28;20452;-71
2022/07/21 04:13:49;;;;;;;2.87;2.30;;;20.80;99.90;;;;;;5117776;28;20445;-71
2022/07/21 04:16:16;;;;;;;3.87;2.10;;;20.70;99.90;;;;;;5118248;28;20484;-70
2022/07/21 04:18:43;;;;;;;2.17;1.93;;;20.80;99.90;;;;;;5118568;28;20838;-70
2022/07/21 04:21:10;;;;;;;2.57;1.77;;;20.80;99.90;;;;;;5118105;28;20508;-70
2022/07/21 04:23:37;;;;;;;2.70;2.10;;;20.80;99.90;;;;;;5117037;28;20487;-70
2022/07/21 04:26:04;;;;;;;2.10;1.73;;;20.80;99.90;;;;;;5116350;28;20487;-70
2022/07/21 04:28:33;;;;;;;2.37;2.17;;;20.90;99.90;;;;;;5117912;28;20448;-70
2022/07/21 04:31:00;;;;;;;2.10;1.70;;;20.90;99.90;;;;;;5116276;28;20602;-70
2022/07/21 04:33:27;;;;;;;2.80;2.00;;;20.80;99.90;;;;;;5117906;28;20452;-70
2022/07/21 04:35:54;;;;;;;2.10;1.90;;;20.70;99.90;;;;;;5117789;28;20513;-70
2022/07/21 04:38:20;;;;;;;2.30;2.00;;;20.70;99.90;;;;;;5118388;28;20479;-70
2022/07/21 04:40:47;;;;;;;3.03;2.00;;;20.70;99.90;;;;;;5117600;28;20567;-70
2022/07/21 04:43:14;;;;;;;2.83;1.83;;;20.70;99.90;;;;;;5115346;28;20483;-70
2022/07/21 04:45:42;;;;;;;2.67;1.60;;;20.60;99.90;;;;;;5118333;28;20895;-70
2022/07/21 04:48:09;;;;;;;2.50;1.90;;;20.50;99.90;;;;;;5102366;28;20434;-70
2022/07/21 04:50:36;;;;;;;1.87;1.50;;;20.50;99.90;;;;;;5098183;28;20485;-71
2022/07/21 04:53:04;;;;;;;2.67;2.27;;;20.40;99.90;;;;;;5097623;28;20452;-70
2022/07/21 04:55:31;;;;;;;2.00;1.57;;;20.30;99.90;;;;;;5112928;28;20892;-70
2022/07/21 04:57:58;;;;;;;2.60;1.70;;;20.40;99.90;;;;;;5118384;28;20483;-71
2022/07/21 05:00:26;;;;;;;3.20;2.17;;;20.40;99.90;;;;;;5115067;28;20460;-70
2022/07/21 05:02:55;;;;;;;2.77;1.83;;;20.40;99.90;;;;;;5116763;28;20790;-70
2022/07/21 05:05:23;;;;;;;2.63;1.30;;;20.50;99.90;;;;;;5116779;28;20453;-70
2022/07/21 05:07:50;;;;;;;2.23;1.93;;;20.50;99.90;;;;;;5116596;28;20887;-71
2022/07/21 05:10:18;;;;;;;2.00;1.47;;;20.40;99.90;;;;;;5116015;28;20463;-70
2022/07/21 05:12:45;;;;;;;2.00;1.70;;;20.40;99.90;;;;;;5115341;28;20443;-71
2022/07/21 05:15:13;;;;;;;2.30;1.60;;;20.40;99.90;;;;;;5116610;28;20521;-71
2022/07/21 05:17:40;;;;;;;2.23;1.83;;;20.30;99.90;;;;;;5117196;28;20481;-70
2022/07/21 05:20:10;;;;;;;2.30;1.90;;;20.30;99.90;;;;;;5117080;28;20471;-71
2022/07/21 05:22:37;;;;;;;3.67;2.93;;;20.30;99.90;;;;;;5116496;28;20480;-70
2022/07/21 05:25:05;;;;;;;3.17;2.17;;;20.10;99.90;;;;;;5114673;28;20951;-71
2022/07/21 05:27:32;;;;;;;2.27;1.77;;;20.20;99.90;;;;;;5115650;28;20543;-71
2022/07/21 05:29:59;;;;;;;3.37;2.43;;;20.30;99.90;;;;;;5114833;28;20816;-71
2022/07/21 05:32:26;;;;;;;4.83;2.50;;;20.30;99.90;;;;;;5116101;28;20501;-71
2022/07/21 05:34:53;;;;;;;2.33;1.80;;;20.30;99.90;;;;;;5115530;28;20809;-71
2022/07/21 05:37:21;;;;;;;2.70;1.93;;;20.30;99.90;;;;;;5114931;28;20896;-71
2022/07/21 05:39:48;;;;;;;3.27;2.53;;;20.30;99.90;;;;;;5115427;28;20782;-71
2022/07/21 05:42:15;;;;;;;2.33;1.70;;;20.30;99.90;;;;;;5115672;28;20507;-72
2022/07/21 05:44:41;;;;;;;2.80;2.00;;;20.60;99.90;;;;;;5116258;28;20473;-71
2022/07/21 05:47:09;;;;;;;3.93;3.60;;;20.90;99.90;;;;;;5114311;28;20449;-71
2022/07/21 05:49:36;;;;;;;6.97;3.50;;;21.00;99.90;;;;;;5103597;28;20446;-71
2022/07/21 05:52:03;;;;;;;2.30;1.90;;;21.10;99.90;;;;;;5111748;28;20506;-72
2022/07/21 05:54:31;;;;;;;6.30;2.27;;;21.10;99.90;;;;;;5115420;28;20513;-71
2022/07/21 05:56:58;;;;;;;2.97;2.60;;;21.20;99.90;;;;;;5113888;28;20492;-71
2022/07/21 05:59:25;;;;;;;2.40;1.80;;;21.20;99.90;;;;;;5114521;28;20441;-71
2022/07/21 06:01:52;;;;;;;2.20;1.53;;;21.20;99.90;;;;;;5115880;28;20777;-72
2022/07/21 06:04:19;;;;;;;3.00;2.07;;;21.40;99.90;;;;;;5114235;28;20900;-72
2022/07/21 06:06:46;;;;;;;2.80;2.13;;;21.40;99.90;;;;;;5114026;28;20483;-74
2022/07/21 06:09:13;;;;;;;2.63;1.83;;;21.30;99.90;;;;;;5114946;28;20531;-75
2022/07/21 06:11:42;;;;;;;2.60;2.40;;;21.30;99.90;;;;;;5115779;28;20475;-75
2022/07/21 06:14:09;;;;;;;3.03;2.27;;;21.30;99.90;;;;;;5114357;28;20460;-74
2022/07/21 06:16:36;;;;;;;2.53;2.33;;;21.30;99.90;;;;;;5113630;28;20484;-75
2022/07/21 06:19:03;;;;;;;2.77;2.03;;;21.30;99.90;;;;;;5113299;28;20541;-75
2022/07/21 06:21:30;;;;;;;3.27;2.10;;;21.30;99.90;;;;;;5114454;28;20504;-74
2022/07/21 06:23:57;;;;;;;3.90;2.13;;;21.20;99.90;;;;;;5113954;28;20532;-74
2022/07/21 06:26:24;;;;;;;3.53;2.83;;;21.50;99.90;;;;;;5113394;28;20812;-73
2022/07/21 06:28:53;;;;;;;3.07;2.30;;;21.60;99.90;;;;;;5108817;28;20484;-73
2022/07/21 06:31:20;;;;;;;2.80;2.23;;;21.70;99.90;;;;;;5093638;28;20511;-73
2022/07/21 06:33:47;;;;;;;3.37;1.83;;;21.70;99.90;;;;;;5093686;28;20536;-73
2022/07/21 06:36:14;;;;;;;2.63;2.27;;;21.90;99.90;;;;;;5094433;28;20477;-73
2022/07/21 06:38:40;;;;;;;2.80;2.23;;;22.10;99.90;;;;;;5093108;28;20860;-73
2022/07/21 06:41:07;;;;;;;2.10;1.90;;;22.30;99.90;;;;;;5098684;28;20563;-73
2022/07/21 06:43:34;;;;;;;3.10;2.37;;;22.60;99.90;;;;;;5114233;28;20539;-73
2022/07/21 06:46:03;;;;;;;2.27;2.03;;;22.70;93.50;;;;;;5109986;28;20770;-74
2022/07/21 06:48:30;;;;;;;3.40;3.03;;;22.80;50.90;;;;;;5105444;28;20842;-73
2022/07/21 06:50:57;;;;;;;2.70;2.10;;;22.90;22.40;;;;;;5111725;28;20553;-73
2022/07/21 06:53:24;;;;;;;4.07;2.13;;;23.10;12.50;;;;;;5101396;28;20480;-73
2022/07/21 06:55:52;;;;;;;2.97;2.13;;;22.90;8.30;;;;;;5111745;28;20513;-72
2022/07/21 06:58:22;;;;;;;2.37;1.70;;;22.90;14.60;;;;;;5113032;28;20958;-73
2022/07/21 07:00:50;;;;;;;3.00;2.20;;;22.80;33.90;;;;;;5113733;28;20787;-72
2022/07/21 07:03:20;;;;;;;2.50;2.27;;;22.80;37.50;;;;;;5114082;28;20927;-72
2022/07/21 07:05:49;;;;;;;1.70;1.60;;;22.80;25.40;;;;;;5113178;28;20899;-72
2022/07/21 07:08:17;;;;;;;2.50;2.07;;;22.40;40.10;;;;;;5114089;28;20580;-73
2022/07/21 07:10:45;;;;;;;2.10;1.80;;;22.50;69.80;;;;;;5112944;28;20456;-72
2022/07/21 07:13:15;;;;;;;2.20;1.57;;;22.60;40.70;;;;;;5111326;28;20445;-73
2022/07/21 07:15:42;;;;;;;2.73;1.83;;;22.60;27.40;;;;;;5111173;28;20460;-73
2022/07/21 07:18:09;;;;;;;2.07;1.50;;;22.80;21.50;;;;;;5112728;28;20967;-73
2022/07/21 07:20:37;;;;;;;1.50;1.40;;;22.80;1.00;;;;;;5113190;28;20449;-72
2022/07/21 07:23:04;;;;;;;3.47;3.07;;;22.90;4.30;;;;;;5115038;28;20480;-73
2022/07/21 07:25:31;;;;;;;2.57;1.97;;;23.10;10.90;;;;;;5093919;28;20532;-73
2022/07/21 07:27:59;;;;;;;4.40;2.00;;;23.10;1.00;;;;;;5092660;28;20501;-73
2022/07/21 07:30:26;;;;;;;2.00;1.63;;;22.80;8.10;;;;;;5092564;28;20550;-73
2022/07/21 07:32:53;;;;;;;2.70;2.40;;;22.80;17.90;;;;;;5093549;28;20438;-73
2022/07/21 07:35:23;;;;;;;3.37;2.30;;;22.70;29.00;;;;;;5100645;28;20452;-73
2022/07/21 07:37:51;;;;;;;2.57;2.37;;;22.90;27.60;;;;;;5116251;28;20449;-73
2022/07/21 07:40:20;;;;;;;2.73;2.10;;;23.10;23.40;;;;;;5117511;28;20531;-74
2022/07/21 07:42:48;;;;;;;2.80;1.97;;;23.30;1.00;;;;;;5117042;28;21138;-73
2022/07/21 07:45:15;;;;;;;1.70;1.40;;;23.50;1.00;;;;;;5116724;28;20456;-74
2022/07/21 07:47:42;;;;;;;2.20;1.73;;;23.60;1.00;;;;;;5107340;28;20595;-73
2022/07/21 07:50:12;;;;;;;2.30;1.50;;;23.90;1.00;;;;;;5118149;28;20463;-74
2022/07/21 07:52:40;;;;;;;2.73;1.90;;;24.20;1.00;;;;;;5117758;28;20510;-72
2022/07/21 07:55:10;;;;;;;2.53;1.73;;;24.10;1.00;;;;;;5114090;28;20472;-73
2022/07/21 07:57:38;;;;;;;1.90;1.50;;;24.20;1.00;;;;;;5115925;28;20514;-72
2022/07/21 08:00:08;;;;;;;2.20;1.90;;;24.20;1.00;;;;;;5115709;28;20473;-72
2022/07/21 08:02:35;;;;;;;2.13;1.40;;;24.30;1.00;;;;;;5116506;28;20476;-72
2022/07/21 08:05:02;;;;;;;2.23;1.30;;;24.30;1.00;;;;;;5116798;28;20449;-72
2022/07/21 08:07:29;;;;;;;2.40;1.60;;;24.40;1.00;;;;;;5117897;28;20505;-74
2022/07/21 08:09:56;;;;;;;3.33;2.10;;;24.40;1.00;;;;;;5116815;28;20559;-72
2022/07/21 08:12:25;;;;;;;2.38;1.83;;;24.50;1.00;;;;;;5116068;28;20511;-72
2022/07/21 08:14:52;;;;;;;2.22;1.60;;;24.60;1.00;;;;;;5116752;28;20523;-72
2022/07/21 08:17:19;;;;;;;2.17;1.30;;;24.50;1.00;;;;;;5117442;28;20239;-72
2022/07/21 08:19:46;;;;;;;1.43;1.30;;;24.40;99.90;;;;;;5115194;28;20490;-72
2022/07/21 08:22:13;;;;;;;1.80;1.67;;;24.50;99.90;;;;;;5116995;28;20472;-72
2022/07/21 08:24:40;;;;;;;2.27;1.50;;;24.80;1.00;;;;;;5103210;28;20976;-72
2022/07/21 08:27:07;;;;;;;2.63;1.73;;;25.00;1.00;;;;;;5113502;28;21080;-72
2022/07/21 08:29:36;;;;;;;2.97;2.17;;;25.00;1.00;;;;;;5116848;28;20536;-72
2022/07/21 08:32:03;;;;;;;3.50;1.73;;;25.00;99.90;;;;;;5112832;28;20468;-73
2022/07/21 08:34:30;;;;;;;1.87;1.50;;;24.90;1.00;;;;;;5113951;28;20557;-73
2022/07/21 08:36:57;;;;;;;1.73;1.50;;;24.70;1.00;;;;;;5115233;28;20555;-73
2022/07/21 08:39:25;;;;;;;2.07;1.87;;;24.60;1.00;;;;;;5114081;28;20445;-74
2022/07/21 08:41:52;;;;;;;2.13;1.70;;;24.70;1.00;;;;;;5115165;28;20487;-74
2022/07/21 08:44:22;;;;;;;2.00;1.17;;;24.80;1.00;;;;;;5115968;28;20498;-73
2022/07/21 08:46:52;;;;;;;1.63;1.40;;;24.80;1.00;;;;;;5116207;28;20517;-74
2022/07/21 08:49:22;;;;;;;1.93;1.73;;;24.90;99.90;;;;;;5116090;28;20519;-73
2022/07/21 08:51:51;;;;;;;2.83;1.50;;;24.50;1.00;;;;;;5115608;28;20548;-74
2022/07/21 08:54:18;;;;;;;1.50;1.40;;;24.30;99.90;;;;;;5116066;28;20453;-75
2022/07/21 08:56:45;;;;;;;2.47;1.60;;;24.20;1.00;;;;;;5114835;28;20601;-74
2022/07/21 08:59:12;;;;;;;3.50;1.30;;;24.30;1.00;;;;;;5109756;28;20453;-76
2022/07/21 09:01:40;;;;;;;1.87;1.47;;;24.50;1.00;;;;;;5112977;28;20452;-75
2022/07/21 09:04:26;;;;;;;1.83;1.60;;;24.80;1.00;;;;;;5113427;28;20448;-75
2022/07/21 09:06:56;;;;;;;1.40;1.30;;;25.00;1.00;;;;;;5115653;28;20871;-74
2022/07/21 09:09:24;;;;;;;2.00;1.27;;;25.30;99.90;;;;;;5115872;28;20551;-74
2022/07/21 09:11:52;;;;;;;1.60;1.30;;;25.20;1.00;;;;;;5116296;28;20510;-74
2022/07/21 09:14:21;;;;;;;2.40;1.20;;;25.20;99.90;;;;;;5116331;28;20505;-74
2022/07/21 09:16:51;;;;;;;1.50;1.10;;;25.20;1.00;;;;;;5115355;28;20457;-74
2022/07/21 09:19:20;;;;;;;1.30;1.20;;;25.20;1.00;;;;;;5116476;28;20903;-74
2022/07/21 09:21:50;;;;;;;2.10;1.17;;;25.40;1.00;;;;;;5116682;28;20895;-73
2022/07/21 09:24:26;;;;;;;1.53;1.23;;;25.80;1.00;;;;;;5116231;28;20537;-73
2022/07/21 09:27:10;;;;;;;1.30;1.10;;;25.90;1.00;;;;;;5115391;28;20491;-73
2022/07/21 09:29:43;;;;;;;1.30;1.13;;;25.70;1.00;;;;;;5110871;28;20480;-74
2022/07/21 09:32:19;;;;;;;2.23;1.70;;;25.80;1.00;;;;;;5112093;28;20448;-72
2022/07/21 09:34:48;;;;;;;1.40;1.30;;;25.90;1.00;;;;;;5114960;28;20428;-74
2022/07/21 09:37:17;;;;;;;1.50;1.40;;;26.10;99.90;;;;;;5114487;28;20456;-73
2022/07/21 09:39:46;;;;;;;1.27;1.10;;;26.20;1.00;;;;;;5115557;28;20530;-73
2022/07/21 09:42:15;;;;;;;1.33;1.10;;;26.20;99.90;;;;;;5115284;28;20600;-72
2022/07/21 09:44:44;;;;;;;2.03;1.73;;;26.40;99.90;;;;;;5115548;28;20444;-72
2022/07/21 09:47:13;;;;;;;2.30;1.47;;;26.30;99.90;;;;;;5114865;28;20472;-77
2022/07/21 09:49:40;;;;;;;2.43;1.50;;;26.10;99.90;;;;;;5112325;28;20448;-75
2022/07/21 09:52:24;;;;;;;1.80;1.30;;;26.00;99.90;;;;;;5101337;28;20472;-75
2022/07/21 09:54:59;;;;;;;1.30;1.20;;;26.20;99.90;;;;;;5093798;28;20453;-74
2022/07/21 09:57:26;;;;;;;2.40;1.23;;;26.40;99.90;;;;;;5093974;28;20544;-75
2022/07/21 09:59:54;;;;;;;1.50;1.20;;;26.50;99.90;;;;;;5108335;28;20953;-74
2022/07/21 10:02:24;;;;;;;1.60;1.30;;;26.70;1.00;;;;;;5113180;28;20565;-74
2022/07/21 10:04:57;;;;;;;1.40;1.07;;;26.90;1.00;;;;;;5110945;28;20920;-73
2022/07/21 10:07:26;;;;;;;1.30;1.10;;;27.00;1.00;;;;;;5112787;28;20456;-71
2022/07/21 10:09:54;;;;;;;1.10;0.90;;;27.30;1.00;;;;;;5113603;28;20524;-71
2022/07/21 10:12:22;;;;;;;1.77;1.07;;;27.40;1.00;;;;;;5113005;28;20533;-70
2022/07/21 10:14:49;;;;;;;1.40;1.00;;;27.60;1.00;;;;;;5110754;28;20524;-70
2022/07/21 10:17:17;;;;;;;1.80;1.10;;;27.60;1.00;;;;;;5112769;28;20449;-71
2022/07/21 10:19:54;;;;;;;1.93;0.90;;;27.80;1.00;;;;;;5110657;28;20437;-70
2022/07/21 10:22:31;;;;;;;1.00;0.90;;;27.60;1.00;;;;;;5114487;28;20472;-70
2022/07/21 10:24:59;;;;;;;1.03;0.70;;;27.50;1.00;;;;;;5109860;28;20568;-70
2022/07/21 10:27:26;;;;;;;2.33;1.00;;;27.60;1.00;;;;;;5113436;28;20501;-70
2022/07/21 10:30:00;;;;;;;2.10;0.90;;;28.00;1.00;;;;;;5113205;28;20523;-70
2022/07/21 10:32:33;;;;;;;1.10;0.90;;;28.10;1.00;;;;;;5113603;28;21110;-71
2022/07/21 10:35:02;;;;;;;1.67;0.90;;;28.30;1.00;;;;;;5112391;28;20460;-72
2022/07/21 10:37:50;;;;;;;1.00;0.87;;;28.00;1.00;;;;;;5112192;28;20875;-72
2022/07/21 10:40:41;;;;;;;1.20;0.90;;;28.20;1.00;;;;;;5113079;28;20476;-72
2022/07/21 10:43:38;;;;;;;0.97;0.80;;;28.60;1.00;;;;;;5112842;28;20477;-73
2022/07/21 10:46:38;;;;;;;0.90;0.70;;;28.70;1.00;;;;;;5114258;28;20451;-72
2022/07/21 10:49:06;;;;;;;1.10;0.80;;;29.00;1.00;;;;;;5114134;28;20448;-71
2022/07/21 10:51:35;;;;;;;0.93;0.80;;;28.60;1.00;;;;;;5114364;28;20456;-72
2022/07/21 10:54:25;;;;;;;1.43;1.00;;;28.40;1.00;;;;;;5112957;28;21087;-71
2022/07/21 10:57:29;;;;;;;1.40;1.00;;;28.50;1.00;;;;;;5114007;28;20551;-71
2022/07/21 11:00:34;;;;;;;1.10;0.83;;;28.10;1.00;;;;;;5112786;28;20453;-70
2022/07/21 11:03:04;;;;;;;1.20;0.80;;;28.10;1.00;;;;;;5048187;28;20502;-70
2022/07/21 11:05:33;;;;;;;1.20;0.83;;;28.20;1.00;;;;;;5048335;28;20503;-70
2022/07/21 11:08:14;;;;;;;1.10;0.80;;;28.20;1.00;;;;;;5066144;28;20445;-71
2022/07/21 11:10:45;;;;;;;1.20;0.90;;;28.00;1.00;;;;;;5112484;28;20495;-71
2022/07/21 11:13:12;;;;;;;1.00;0.70;;;27.60;1.00;;;;;;5116066;28;21131;-71
2022/07/21 11:15:55;;;;;;;0.90;0.77;;;28.10;1.00;;;;;;5118055;28;20444;-71
2022/07/21 11:18:24;;;;;;;1.87;1.00;;;28.80;1.00;;;;;;5117731;28;20451;-70
2022/07/21 11:21:12;;;;;;;3.50;1.20;;;29.40;1.00;;;;;;5117381;28;20782;-71
2022/07/21 11:23:41;;;;;;;0.83;0.77;;;29.80;1.00;;;;;;5097992;28;20964;-72
2022/07/21 11:26:11;;;;;;;2.20;0.80;;;29.90;1.00;;;;;;5113536;28;20487;-71
2022/07/21 11:28:38;;;;;;;1.20;0.70;;;30.00;1.00;;;;;;5124503;27;20463;-70
2022/07/21 11:31:10;;;;;;;1.70;1.00;;;30.10;1.00;;;;;;5118065;27;20456;-70
2022/07/21 11:33:38;;;;;;;1.00;0.80;;;30.10;1.00;;;;;;5111931;28;20480;-71
2022/07/21 11:36:06;;;;;;;1.20;0.97;;;30.30;1.00;;;;;;5111791;28;20468;-71
2022/07/21 11:38:34;;;;;;;1.37;0.97;;;30.30;1.00;;;;;;5114982;28;21039;-70
2022/07/21 11:41:19;;;;;;;1.00;0.80;;;30.30;1.00;;;;;;5115538;28;20500;-71
2022/07/21 11:43:49;;;;;;;0.97;0.80;;;30.00;1.00;;;;;;5117273;28;20523;-72
2022/07/21 11:46:16;;;;;;;1.00;0.80;;;29.30;1.00;;;;;;5116124;28;20888;-71
2022/07/21 11:48:43;;;;;;;1.30;0.80;;;28.90;1.00;;;;;;5114545;28;20718;-70
2022/07/21 11:51:10;;;;;;;1.00;0.80;;;28.60;1.00;;;;;;5117260;28;20492;-71
2022/07/21 11:53:43;;;;;;;2.93;1.00;;;28.60;1.00;;;;;;5115824;28;20664;-72
2022/07/21 11:56:15;;;;;;;0.93;0.80;;;28.70;1.00;;;;;;5115339;28;20959;-71
2022/07/21 11:58:45;;;;;;;1.10;0.70;;;28.80;1.00;;;;;;5114556;28;20822;-73
2022/07/21 12:01:12;;;;;;;1.00;0.83;;;28.70;1.00;;;;;;5087016;28;20590;-73
2022/07/21 12:03:51;;;;;;;1.10;0.83;;;28.70;1.00;;;;;;5110997;28;20512;-73
2022/07/21 12:06:19;;;;;;;1.20;1.00;;;28.70;1.00;;;;;;5114650;28;20460;-74
2022/07/21 12:08:46;;;;;;;0.93;0.83;;;28.90;1.00;;;;;;5116342;28;20555;-73
2022/07/21 12:11:13;;;;;;;1.10;0.70;;;29.20;1.00;;;;;;5113404;28;20492;-73
2022/07/21 12:13:58;;;;;;;1.17;0.80;;;29.80;1.00;;;;;;5109394;28;20499;-72
2022/07/21 12:16:26;;;;;;;1.30;1.00;;;30.20;1.00;;;;;;5115710;28;20444;-73
2022/07/21 12:19:11;;;;;;;1.10;0.90;;;30.90;1.00;;;;;;5115853;28;20506;-70
2022/07/21 12:21:45;;;;;;;2.00;0.83;;;31.30;1.00;;;;;;5098522;28;20498;-72
2022/07/21 12:24:14;;;;;;;1.00;0.90;;;31.80;1.00;;;;;;5114303;28;20481;-75
2022/07/21 12:26:42;;;;;;;1.10;0.90;;;31.90;1.00;;;;;;5095927;28;20470;-72
2022/07/21 12:29:11;;;;;;;1.00;0.90;;;31.30;1.00;;;;;;5113551;28;20573;-73
2022/07/21 12:31:43;;;;;;;1.20;1.00;;;30.90;1.00;;;;;;5094188;28;20448;-74
2022/07/21 12:34:14;;;;;;;1.20;1.07;;;30.50;1.00;;;;;;5116212;28;20800;-73
2022/07/21 12:36:43;;;;;;;1.00;0.90;;;30.50;1.00;;;;;;5115312;28;20491;-75
2022/07/21 12:42:06;;;;;;;1.63;1.00;;;30.50;1.00;;;;;;5115503;28;20587;-72
2022/07/21 12:44:35;;;;;;;1.20;0.90;;;30.60;1.00;;;;;;5116775;28;20564;-72
2022/07/21 12:47:19;;;;;;;2.03;1.10;;;31.20;1.00;;;;;;5112801;28;20875;-71
2022/07/21 12:50:01;;;;;;;1.10;1.00;;;31.40;1.00;;;;;;5116904;28;20500;-72
2022/07/21 12:52:29;;;;;;;1.60;1.10;;;31.30;1.00;;;;;;5117218;28;20539;-75
2022/07/21 12:54:57;;;;;;;2.90;0.93;;;31.00;1.00;;;;;;5117092;28;20456;-73
2022/07/21 12:57:28;;;;;;;1.40;1.30;;;31.40;1.00;;;;;;5115952;28;20956;-70
2022/07/21 13:00:00;;;;;;;1.10;1.00;;;31.80;1.00;;;;;;5115569;28;20904;-72
2022/07/21 13:02:28;;;;;;;1.17;1.00;;;31.60;1.00;;;;;;5096785;28;20507;-73
2022/07/21 13:04:56;;;;;;;1.77;1.20;;;31.60;1.00;;;;;;5096663;28;20481;-72